LFRT 221130Z AUTO 25018KT 9999 BKN015 OVC130 12/08 Q1027

ElémentsDécodage
LFRT Station météo située sur l'aérodrome de SAINT-BRIEUC Armor
221130Z émis le 22 du mois à 11h30 UTC
AUTO Bulletin édité par un automate
25018KT vent du 250°, 18 noeuds
9999 visibilité horizontale supérieure à 10 Km
BKN015 nuages morcelés (5/8 à 7/8) à 1500 pieds
OVC130 couverture nuageuse totale (8/8) à 13000 pieds
12/08 température 12°C, point de rosée 08°C
 soit une humidité relative de 77%
Q1027 la pression au niveau de la mer (QNH) est de 1027 hPa